sensor_id;sensor_type;location;lat;lon;timestamp;temperature;humidity
65884;HTU21D;52663;51.038;5.858;2022-10-31T00:00:54;18.49;69.65
65884;HTU21D;52663;51.038;5.858;2022-10-31T00:03:20;18.48;69.70
65884;HTU21D;52663;51.038;5.858;2022-10-31T00:05:49;18.44;69.78
65884;HTU21D;52663;51.038;5.858;2022-10-31T00:08:16;18.41;69.97
65884;HTU21D;52663;51.038;5.858;2022-10-31T00:10:44;18.40;70.03
65884;HTU21D;52663;51.038;5.858;2022-10-31T00:13:13;18.38;70.04
65884;HTU21D;52663;51.038;5.858;2022-10-31T00:15:40;18.39;70.02
65884;HTU21D;52663;51.038;5.858;2022-10-31T00:18:07;18.39;69.90
65884;HTU21D;52663;51.038;5.858;2022-10-31T00:20:33;18.36;69.97
65884;HTU21D;52663;51.038;5.858;2022-10-31T00:23:01;18.34;70.04
65884;HTU21D;52663;51.038;5.858;2022-10-31T00:25:28;18.29;70.20
65884;HTU21D;52663;51.038;5.858;2022-10-31T00:27:55;18.26;70.28
65884;HTU21D;52663;51.038;5.858;2022-10-31T00:30:20;18.23;70.37
65884;HTU21D;52663;51.038;5.858;2022-10-31T00:32:46;18.24;70.28
65884;HTU21D;52663;51.038;5.858;2022-10-31T00:35:12;18.23;70.19
65884;HTU21D;52663;51.038;5.858;2022-10-31T00:37:38;18.18;70.28
65884;HTU21D;52663;51.038;5.858;2022-10-31T00:40:04;18.15;70.43
65884;HTU21D;52663;51.038;5.858;2022-10-31T00:42:30;18.12;70.42
65884;HTU21D;52663;51.038;5.858;2022-10-31T00:44:57;18.07;70.52
65884;HTU21D;52663;51.038;5.858;2022-10-31T00:47:23;18.04;70.72
65884;HTU21D;52663;51.038;5.858;2022-10-31T00:49:49;18.04;70.69
65884;HTU21D;52663;51.038;5.858;2022-10-31T00:52:14;17.99;70.84
65884;HTU21D;52663;51.038;5.858;2022-10-31T00:54:41;17.96;70.96
65884;HTU21D;52663;51.038;5.858;2022-10-31T00:57:07;17.96;70.94
65884;HTU21D;52663;51.038;5.858;2022-10-31T00:59:33;17.95;70.89
65884;HTU21D;52663;51.038;5.858;2022-10-31T01:01:59;17.93;70.89
65884;HTU21D;52663;51.038;5.858;2022-10-31T01:04:25;17.88;71.10
65884;HTU21D;52663;51.038;5.858;2022-10-31T01:06:50;17.84;71.32
65884;HTU21D;52663;51.038;5.858;2022-10-31T01:09:16;17.79;71.41
65884;HTU21D;52663;51.038;5.858;2022-10-31T01:11:42;17.74;71.79
65884;HTU21D;52663;51.038;5.858;2022-10-31T01:14:09;17.74;71.90
65884;HTU21D;52663;51.038;5.858;2022-10-31T01:16:35;17.73;71.91
65884;HTU21D;52663;51.038;5.858;2022-10-31T01:19:01;17.73;71.92
65884;HTU21D;52663;51.038;5.858;2022-10-31T01:21:28;17.73;71.90
65884;HTU21D;52663;51.038;5.858;2022-10-31T01:23:57;17.67;71.95
65884;HTU21D;52663;51.038;5.858;2022-10-31T01:26:27;17.61;72.06
65884;HTU21D;52663;51.038;5.858;2022-10-31T01:29:02;17.62;71.86
65884;HTU21D;52663;51.038;5.858;2022-10-31T01:31:31;17.53;72.11
65884;HTU21D;52663;51.038;5.858;2022-10-31T01:33:58;17.48;72.25
65884;HTU21D;52663;51.038;5.858;2022-10-31T01:36:29;17.44;72.37
65884;HTU21D;52663;51.038;5.858;2022-10-31T01:38:58;17.43;72.35
65884;HTU21D;52663;51.038;5.858;2022-10-31T01:41:30;17.45;72.04
65884;HTU21D;52663;51.038;5.858;2022-10-31T01:43:59;17.43;71.88
65884;HTU21D;52663;51.038;5.858;2022-10-31T01:46:36;17.41;71.93
65884;HTU21D;52663;51.038;5.858;2022-10-31T01:49:11;17.40;72.04
65884;HTU21D;52663;51.038;5.858;2022-10-31T01:51:45;17.39;72.16
65884;HTU21D;52663;51.038;5.858;2022-10-31T01:54:15;17.37;72.19
65884;HTU21D;52663;51.038;5.858;2022-10-31T01:56:48;17.34;72.16
65884;HTU21D;52663;51.038;5.858;2022-10-31T01:59:19;17.28;72.35
65884;HTU21D;52663;51.038;5.858;2022-10-31T02:01:47;17.23;72.63
65884;HTU21D;52663;51.038;5.858;2022-10-31T02:04:17;17.23;72.59
65884;HTU21D;52663;51.038;5.858;2022-10-31T02:06:57;17.24;72.70
65884;HTU21D;52663;51.038;5.858;2022-10-31T02:09:26;17.29;72.51
65884;HTU21D;52663;51.038;5.858;2022-10-31T02:11:55;17.32;72.45
65884;HTU21D;52663;51.038;5.858;2022-10-31T02:14:25;17.31;72.44
65884;HTU21D;52663;51.038;5.858;2022-10-31T02:16:53;17.32;72.46
65884;HTU21D;52663;51.038;5.858;2022-10-31T02:28:33;17.23;72.66
65884;HTU21D;52663;51.038;5.858;2022-10-31T02:31:24;17.25;72.59
65884;HTU21D;52663;51.038;5.858;2022-10-31T02:34:00;17.24;72.58
65884;HTU21D;52663;51.038;5.858;2022-10-31T02:36:48;17.21;72.74
65884;HTU21D;52663;51.038;5.858;2022-10-31T02:39:30;17.21;72.80
65884;HTU21D;52663;51.038;5.858;2022-10-31T02:42:16;17.16;73.03
65884;HTU21D;52663;51.038;5.858;2022-10-31T02:44:49;17.16;73.13
65884;HTU21D;52663;51.038;5.858;2022-10-31T02:47:27;17.17;73.15
65884;HTU21D;52663;51.038;5.858;2022-10-31T02:49:56;17.17;72.94
65884;HTU21D;52663;51.038;5.858;2022-10-31T02:52:27;17.10;73.01
65884;HTU21D;52663;51.038;5.858;2022-10-31T02:55:40;17.03;73.27
65884;HTU21D;52663;51.038;5.858;2022-10-31T02:58:06;17.00;73.31
65884;HTU21D;52663;51.038;5.858;2022-10-31T03:01:17;16.99;73.16
65884;HTU21D;52663;51.038;5.858;2022-10-31T03:06:49;16.93;73.24
65884;HTU21D;52663;51.038;5.858;2022-10-31T03:12:27;16.90;73.38
65884;HTU21D;52663;51.038;5.858;2022-10-31T03:15:14;16.89;73.29
65884;HTU21D;52663;51.038;5.858;2022-10-31T03:20:25;16.92;73.03
65884;HTU21D;52663;51.038;5.858;2022-10-31T03:22:54;16.93;72.80
65884;HTU21D;52663;51.038;5.858;2022-10-31T03:25:22;16.94;72.63
65884;HTU21D;52663;51.038;5.858;2022-10-31T03:27:51;16.89;72.73
65884;HTU21D;52663;51.038;5.858;2022-10-31T03:30:18;16.86;72.85
65884;HTU21D;52663;51.038;5.858;2022-10-31T03:32:57;16.84;72.93
65884;HTU21D;52663;51.038;5.858;2022-10-31T03:35:27;16.82;72.97
65884;HTU21D;52663;51.038;5.858;2022-10-31T03:37:56;16.80;72.98
65884;HTU21D;52663;51.038;5.858;2022-10-31T03:40:27;16.79;72.98
65884;HTU21D;52663;51.038;5.858;2022-10-31T03:43:15;16.78;73.12
65884;HTU21D;52663;51.038;5.858;2022-10-31T03:45:45;16.80;73.11
65884;HTU21D;52663;51.038;5.858;2022-10-31T03:48:18;16.79;73.09
65884;HTU21D;52663;51.038;5.858;2022-10-31T03:54:08;16.77;73.36
65884;HTU21D;52663;51.038;5.858;2022-10-31T03:56:41;16.72;73.61
65884;HTU21D;52663;51.038;5.858;2022-10-31T03:59:25;16.67;73.88
65884;HTU21D;52663;51.038;5.858;2022-10-31T04:01:57;16.63;74.08
65884;HTU21D;52663;51.038;5.858;2022-10-31T04:04:26;16.58;74.30
65884;HTU21D;52663;51.038;5.858;2022-10-31T04:06:56;16.55;74.27
65884;HTU21D;52663;51.038;5.858;2022-10-31T04:09:25;16.54;74.26
65884;HTU21D;52663;51.038;5.858;2022-10-31T04:11:54;16.54;74.32
65884;HTU21D;52663;51.038;5.858;2022-10-31T04:15:02;16.57;74.31
65884;HTU21D;52663;51.038;5.858;2022-10-31T04:17:33;16.59;74.18
65884;HTU21D;52663;51.038;5.858;2022-10-31T04:20:00;16.59;74.06
65884;HTU21D;52663;51.038;5.858;2022-10-31T04:22:28;16.58;74.03
65884;HTU21D;52663;51.038;5.858;2022-10-31T04:24:58;16.55;73.99
65884;HTU21D;52663;51.038;5.858;2022-10-31T04:27:25;16.52;74.02
65884;HTU21D;52663;51.038;5.858;2022-10-31T04:29:51;16.54;74.09
65884;HTU21D;52663;51.038;5.858;2022-10-31T04:32:17;16.57;73.86
65884;HTU21D;52663;51.038;5.858;2022-10-31T04:34:43;16.56;73.91
65884;HTU21D;52663;51.038;5.858;2022-10-31T04:37:10;16.54;74.01
65884;HTU21D;52663;51.038;5.858;2022-10-31T04:39:36;16.51;74.03
65884;HTU21D;52663;51.038;5.858;2022-10-31T04:42:34;16.39;74.25
65884;HTU21D;52663;51.038;5.858;2022-10-31T04:45:03;16.30;74.76
65884;HTU21D;52663;51.038;5.858;2022-10-31T04:47:32;16.29;74.94
65884;HTU21D;52663;51.038;5.858;2022-10-31T04:50:00;16.30;74.83
65884;HTU21D;52663;51.038;5.858;2022-10-31T04:52:26;16.30;74.84
65884;HTU21D;52663;51.038;5.858;2022-10-31T04:54:52;16.30;74.67
65884;HTU21D;52663;51.038;5.858;2022-10-31T04:57:41;16.32;74.41
65884;HTU21D;52663;51.038;5.858;2022-10-31T05:00:08;16.28;74.38
65884;HTU21D;52663;51.038;5.858;2022-10-31T05:02:34;16.25;74.15
65884;HTU21D;52663;51.038;5.858;2022-10-31T05:05:07;16.20;74.11
65884;HTU21D;52663;51.038;5.858;2022-10-31T05:07:38;16.18;73.90
65884;HTU21D;52663;51.038;5.858;2022-10-31T05:10:05;16.14;73.86
65884;HTU21D;52663;51.038;5.858;2022-10-31T05:12:31;16.12;74.00
65884;HTU21D;52663;51.038;5.858;2022-10-31T05:15:06;16.13;73.90
65884;HTU21D;52663;51.038;5.858;2022-10-31T05:17:51;16.15;73.79
65884;HTU21D;52663;51.038;5.858;2022-10-31T05:20:36;16.17;73.79
65884;HTU21D;52663;51.038;5.858;2022-10-31T05:23:21;16.20;73.74
65884;HTU21D;52663;51.038;5.858;2022-10-31T05:25:47;16.19;73.73
65884;HTU21D;52663;51.038;5.858;2022-10-31T05:28:13;16.18;73.83
65884;HTU21D;52663;51.038;5.858;2022-10-31T05:30:39;16.16;73.81
65884;HTU21D;52663;51.038;5.858;2022-10-31T05:33:09;16.11;73.75
65884;HTU21D;52663;51.038;5.858;2022-10-31T05:35:34;16.08;73.71
65884;HTU21D;52663;51.038;5.858;2022-10-31T05:38:19;16.06;73.78
65884;HTU21D;52663;51.038;5.858;2022-10-31T05:40:45;16.06;73.86
65884;HTU21D;52663;51.038;5.858;2022-10-31T05:43:12;16.03;73.99
65884;HTU21D;52663;51.038;5.858;2022-10-31T05:45:38;15.99;73.89
65884;HTU21D;52663;51.038;5.858;2022-10-31T05:48:08;15.96;73.84
65884;HTU21D;52663;51.038;5.858;2022-10-31T05:50:47;15.95;73.76
65884;HTU21D;52663;51.038;5.858;2022-10-31T05:53:15;15.95;73.69
65884;HTU21D;52663;51.038;5.858;2022-10-31T05:55:42;15.95;73.57
65884;HTU21D;52663;51.038;5.858;2022-10-31T05:58:12;15.92;73.48
65884;HTU21D;52663;51.038;5.858;2022-10-31T06:00:40;15.90;73.49
65884;HTU21D;52663;51.038;5.858;2022-10-31T06:03:09;15.88;73.61
65884;HTU21D;52663;51.038;5.858;2022-10-31T06:05:51;15.88;73.68
65884;HTU21D;52663;51.038;5.858;2022-10-31T06:08:17;15.87;73.66
65884;HTU21D;52663;51.038;5.858;2022-10-31T06:10:44;15.88;73.63
65884;HTU21D;52663;51.038;5.858;2022-10-31T06:13:11;15.86;73.68
65884;HTU21D;52663;51.038;5.858;2022-10-31T06:15:43;15.81;73.62
65884;HTU21D;52663;51.038;5.858;2022-10-31T06:18:10;15.75;73.83
65884;HTU21D;52663;51.038;5.858;2022-10-31T06:20:46;15.71;73.93
65884;HTU21D;52663;51.038;5.858;2022-10-31T06:23:11;15.71;74.05
65884;HTU21D;52663;51.038;5.858;2022-10-31T06:25:39;15.72;73.97
65884;HTU21D;52663;51.038;5.858;2022-10-31T06:28:05;15.69;73.94
65884;HTU21D;52663;51.038;5.858;2022-10-31T06:30:43;15.67;73.97
65884;HTU21D;52663;51.038;5.858;2022-10-31T06:33:09;15.65;74.02
65884;HTU21D;52663;51.038;5.858;2022-10-31T06:35:38;15.65;73.76
65884;HTU21D;52663;51.038;5.858;2022-10-31T06:38:06;15.62;73.65
65884;HTU21D;52663;51.038;5.858;2022-10-31T06:40:37;15.61;73.61
65884;HTU21D;52663;51.038;5.858;2022-10-31T06:43:15;15.57;73.61
65884;HTU21D;52663;51.038;5.858;2022-10-31T06:45:41;15.58;73.61
65884;HTU21D;52663;51.038;5.858;2022-10-31T06:48:16;15.60;73.63
65884;HTU21D;52663;51.038;5.858;2022-10-31T06:51:02;15.59;73.90
65884;HTU21D;52663;51.038;5.858;2022-10-31T06:53:36;15.61;73.96
65884;HTU21D;52663;51.038;5.858;2022-10-31T06:56:04;15.54;74.00
65884;HTU21D;52663;51.038;5.858;2022-10-31T06:58:38;15.47;74.18
65884;HTU21D;52663;51.038;5.858;2022-10-31T07:01:06;15.44;74.44
65884;HTU21D;52663;51.038;5.858;2022-10-31T07:03:33;15.49;74.45
65884;HTU21D;52663;51.038;5.858;2022-10-31T07:05:59;15.55;74.34
65884;HTU21D;52663;51.038;5.858;2022-10-31T07:08:25;15.56;74.31
65884;HTU21D;52663;51.038;5.858;2022-10-31T07:10:55;15.57;74.35
65884;HTU21D;52663;51.038;5.858;2022-10-31T07:13:23;15.57;74.54
65884;HTU21D;52663;51.038;5.858;2022-10-31T07:16:05;15.55;74.56
65884;HTU21D;52663;51.038;5.858;2022-10-31T07:18:45;15.48;75.02
65884;HTU21D;52663;51.038;5.858;2022-10-31T07:21:12;15.48;75.27
65884;HTU21D;52663;51.038;5.858;2022-10-31T07:23:39;15.52;75.20
65884;HTU21D;52663;51.038;5.858;2022-10-31T07:26:24;15.57;75.02
65884;HTU21D;52663;51.038;5.858;2022-10-31T07:28:51;15.59;74.96
65884;HTU21D;52663;51.038;5.858;2022-10-31T07:31:20;15.65;74.78
65884;HTU21D;52663;51.038;5.858;2022-10-31T07:33:46;15.67;74.74
65884;HTU21D;52663;51.038;5.858;2022-10-31T07:36:44;15.71;74.41
65884;HTU21D;52663;51.038;5.858;2022-10-31T07:39:12;15.63;74.09
65884;HTU21D;52663;51.038;5.858;2022-10-31T07:41:41;15.54;74.32
65884;HTU21D;52663;51.038;5.858;2022-10-31T07:44:11;15.46;74.67
65884;HTU21D;52663;51.038;5.858;2022-10-31T07:47:03;15.47;74.92
65884;HTU21D;52663;51.038;5.858;2022-10-31T07:49:55;15.54;74.89
65884;HTU21D;52663;51.038;5.858;2022-10-31T07:53:01;15.67;74.70
65884;HTU21D;52663;51.038;5.858;2022-10-31T07:55:56;15.78;74.63
65884;HTU21D;52663;51.038;5.858;2022-10-31T07:58:28;15.91;74.31
65884;HTU21D;52663;51.038;5.858;2022-10-31T08:00:54;16.04;74.01
65884;HTU21D;52663;51.038;5.858;2022-10-31T08:03:30;16.17;73.80
65884;HTU21D;52663;51.038;5.858;2022-10-31T08:06:15;16.34;73.66
65884;HTU21D;52663;51.038;5.858;2022-10-31T08:09:05;16.51;73.45
65884;HTU21D;52663;51.038;5.858;2022-10-31T08:11:32;16.64;72.93
65884;HTU21D;52663;51.038;5.858;2022-10-31T08:14:03;16.74;72.77
65884;HTU21D;52663;51.038;5.858;2022-10-31T08:16:33;16.84;72.61
65884;HTU21D;52663;51.038;5.858;2022-10-31T08:19:01;16.91;72.32
65884;HTU21D;52663;51.038;5.858;2022-10-31T08:21:35;16.98;72.15
65884;HTU21D;52663;51.038;5.858;2022-10-31T08:24:02;17.02;72.03
65884;HTU21D;52663;51.038;5.858;2022-10-31T08:26:28;17.04;71.99
65884;HTU21D;52663;51.038;5.858;2022-10-31T08:28:55;17.05;72.06
65884;HTU21D;52663;51.038;5.858;2022-10-31T08:31:22;17.07;72.25
65884;HTU21D;52663;51.038;5.858;2022-10-31T08:33:49;17.08;72.36
65884;HTU21D;52663;51.038;5.858;2022-10-31T08:36:18;17.08;72.59
65884;HTU21D;52663;51.038;5.858;2022-10-31T08:39:02;17.04;72.90
65884;HTU21D;52663;51.038;5.858;2022-10-31T08:41:30;17.02;73.26
65884;HTU21D;52663;51.038;5.858;2022-10-31T08:43:57;17.03;73.48
65884;HTU21D;52663;51.038;5.858;2022-10-31T08:46:23;17.02;73.53
65884;HTU21D;52663;51.038;5.858;2022-10-31T08:48:49;17.03;73.63
65884;HTU21D;52663;51.038;5.858;2022-10-31T08:51:16;17.09;73.71
65884;HTU21D;52663;51.038;5.858;2022-10-31T08:53:42;17.18;73.60
65884;HTU21D;52663;51.038;5.858;2022-10-31T08:56:34;17.32;73.61
65884;HTU21D;52663;51.038;5.858;2022-10-31T08:59:02;17.46;73.27
65884;HTU21D;52663;51.038;5.858;2022-10-31T09:01:36;17.67;73.23
65884;HTU21D;52663;51.038;5.858;2022-10-31T09:04:05;17.95;73.20
65884;HTU21D;52663;51.038;5.858;2022-10-31T09:06:31;18.35;72.38
65884;HTU21D;52663;51.038;5.858;2022-10-31T09:09:01;18.70;70.74
65884;HTU21D;52663;51.038;5.858;2022-10-31T09:11:27;19.02;69.31
65884;HTU21D;52663;51.038;5.858;2022-10-31T09:14:15;19.20;67.78
65884;HTU21D;52663;51.038;5.858;2022-10-31T09:16:41;19.23;67.40
65884;HTU21D;52663;51.038;5.858;2022-10-31T09:19:14;19.21;67.15
65884;HTU21D;52663;51.038;5.858;2022-10-31T09:21:44;19.15;67.32
65884;HTU21D;52663;51.038;5.858;2022-10-31T09:24:11;19.10;67.45
65884;HTU21D;52663;51.038;5.858;2022-10-31T09:26:37;19.06;67.35
65884;HTU21D;52663;51.038;5.858;2022-10-31T09:29:16;18.96;67.27
65884;HTU21D;52663;51.038;5.858;2022-10-31T09:31:46;18.81;67.54
65884;HTU21D;52663;51.038;5.858;2022-10-31T09:34:34;18.69;68.01
65884;HTU21D;52663;51.038;5.858;2022-10-31T09:37:05;18.56;68.41
65884;HTU21D;52663;51.038;5.858;2022-10-31T09:39:33;18.46;68.97
65884;HTU21D;52663;51.038;5.858;2022-10-31T09:45:07;18.54;69.41
65884;HTU21D;52663;51.038;5.858;2022-10-31T09:50:54;18.83;69.29
65884;HTU21D;52663;51.038;5.858;2022-10-31T09:53:57;19.11;68.80
65884;HTU21D;52663;51.038;5.858;2022-10-31T09:56:26;19.29;68.02
65884;HTU21D;52663;51.038;5.858;2022-10-31T09:58:58;19.39;67.40
65884;HTU21D;52663;51.038;5.858;2022-10-31T10:01:49;19.43;67.15
65884;HTU21D;52663;51.038;5.858;2022-10-31T10:07:14;19.40;67.20
65884;HTU21D;52663;51.038;5.858;2022-10-31T10:09:42;19.40;67.12
65884;HTU21D;52663;51.038;5.858;2022-10-31T10:13:05;19.32;67.52
65884;HTU21D;52663;51.038;5.858;2022-10-31T10:21:32;19.32;67.91
65884;HTU21D;52663;51.038;5.858;2022-10-31T10:27:03;19.22;68.50
65884;HTU21D;52663;51.038;5.858;2022-10-31T10:32:46;19.28;68.48
65884;HTU21D;52663;51.038;5.858;2022-10-31T10:35:26;19.32;68.42
65884;HTU21D;52663;51.038;5.858;2022-10-31T10:37:59;19.44;68.34
65884;HTU21D;52663;51.038;5.858;2022-10-31T10:40:28;19.54;68.07
65884;HTU21D;52663;51.038;5.858;2022-10-31T10:51:45;19.76;67.93
65884;HTU21D;52663;51.038;5.858;2022-10-31T10:57:11;19.88;67.49
65884;HTU21D;52663;51.038;5.858;2022-10-31T10:59:38;19.92;67.16
65884;HTU21D;52663;51.038;5.858;2022-10-31T11:02:17;19.90;67.04
65884;HTU21D;52663;51.038;5.858;2022-10-31T11:04:49;19.94;66.91
65884;HTU21D;52663;51.038;5.858;2022-10-31T11:07:16;19.99;66.75
65884;HTU21D;52663;51.038;5.858;2022-10-31T11:09:42;20.07;66.53
65884;HTU21D;52663;51.038;5.858;2022-10-31T11:12:20;20.19;66.20
65884;HTU21D;52663;51.038;5.858;2022-10-31T11:15:17;20.37;65.75
65884;HTU21D;52663;51.038;5.858;2022-10-31T11:17:49;20.56;64.77
65884;HTU21D;52663;51.038;5.858;2022-10-31T11:22:45;20.65;64.48
65884;HTU21D;52663;51.038;5.858;2022-10-31T11:25:29;20.69;63.92
65884;HTU21D;52663;51.038;5.858;2022-10-31T11:28:00;20.73;63.90
65884;HTU21D;52663;51.038;5.858;2022-10-31T11:30:27;20.78;63.08
65884;HTU21D;52663;51.038;5.858;2022-10-31T11:32:53;20.84;63.25
65884;HTU21D;52663;51.038;5.858;2022-10-31T11:35:23;20.88;63.15
65884;HTU21D;52663;51.038;5.858;2022-10-31T11:37:53;20.89;62.77
65884;HTU21D;52663;51.038;5.858;2022-10-31T11:40:30;20.93;62.53
65884;HTU21D;52663;51.038;5.858;2022-10-31T11:42:58;21.03;62.34
65884;HTU21D;52663;51.038;5.858;2022-10-31T11:45:32;21.09;61.99
65884;HTU21D;52663;51.038;5.858;2022-10-31T11:48:01;21.11;61.85
65884;HTU21D;52663;51.038;5.858;2022-10-31T11:50:38;21.11;61.84
65884;HTU21D;52663;51.038;5.858;2022-10-31T11:53:16;21.11;61.82
65884;HTU21D;52663;51.038;5.858;2022-10-31T11:55:42;21.11;61.93
65884;HTU21D;52663;51.038;5.858;2022-10-31T11:58:24;21.13;61.94
65884;HTU21D;52663;51.038;5.858;2022-10-31T12:01:20;21.13;61.85
65884;HTU21D;52663;51.038;5.858;2022-10-31T12:03:53;21.13;61.87
65884;HTU21D;52663;51.038;5.858;2022-10-31T12:06:21;21.13;62.02
65884;HTU21D;52663;51.038;5.858;2022-10-31T12:08:48;21.11;61.94
65884;HTU21D;52663;51.038;5.858;2022-10-31T12:11:36;21.15;61.83
65884;HTU21D;52663;51.038;5.858;2022-10-31T12:14:33;21.18;61.94
65884;HTU21D;52663;51.038;5.858;2022-10-31T12:22:37;21.23;62.02
65884;HTU21D;52663;51.038;5.858;2022-10-31T12:25:28;21.18;61.99
65884;HTU21D;52663;51.038;5.858;2022-10-31T12:30:46;21.09;62.66
65884;HTU21D;52663;51.038;5.858;2022-10-31T12:33:36;21.20;62.86
65884;HTU21D;52663;51.038;5.858;2022-10-31T12:39:14;21.55;62.17
65884;HTU21D;52663;51.038;5.858;2022-10-31T12:50:19;21.52;61.61
65884;HTU21D;52663;51.038;5.858;2022-10-31T12:53:25;21.55;61.51
65884;HTU21D;52663;51.038;5.858;2022-10-31T12:59:10;21.43;61.54
65884;HTU21D;52663;51.038;5.858;2022-10-31T13:01:47;21.42;61.89
65884;HTU21D;52663;51.038;5.858;2022-10-31T13:04:49;21.50;61.87
65884;HTU21D;52663;51.038;5.858;2022-10-31T13:07:34;21.65;61.63
65884;HTU21D;52663;51.038;5.858;2022-10-31T13:10:19;21.81;61.16
65884;HTU21D;52663;51.038;5.858;2022-10-31T13:12:51;21.95;61.04
65884;HTU21D;52663;51.038;5.858;2022-10-31T13:15:22;22.09;60.70
65884;HTU21D;52663;51.038;5.858;2022-10-31T13:17:56;22.16;60.14
65884;HTU21D;52663;51.038;5.858;2022-10-31T13:20:30;22.11;59.75
65884;HTU21D;52663;51.038;5.858;2022-10-31T13:23:19;21.94;59.67
65884;HTU21D;52663;51.038;5.858;2022-10-31T13:25:55;21.78;60.14
65884;HTU21D;52663;51.038;5.858;2022-10-31T13:28:38;21.68;60.47
65884;HTU21D;52663;51.038;5.858;2022-10-31T13:31:06;21.61;60.68
65884;HTU21D;52663;51.038;5.858;2022-10-31T13:33:39;21.54;60.86
65884;HTU21D;52663;51.038;5.858;2022-10-31T13:39:04;21.55;61.43
65884;HTU21D;52663;51.038;5.858;2022-10-31T13:41:53;21.57;61.25
65884;HTU21D;52663;51.038;5.858;2022-10-31T13:44:26;21.51;61.41
65884;HTU21D;52663;51.038;5.858;2022-10-31T13:46:54;21.51;61.47
65884;HTU21D;52663;51.038;5.858;2022-10-31T13:52:12;21.58;61.34
65884;HTU21D;52663;51.038;5.858;2022-10-31T13:54:50;21.62;61.40
65884;HTU21D;52663;51.038;5.858;2022-10-31T13:57:47;21.59;61.60
65884;HTU21D;52663;51.038;5.858;2022-10-31T14:02:48;21.50;61.07
65884;HTU21D;52663;51.038;5.858;2022-10-31T14:05:33;21.46;60.80
65884;HTU21D;52663;51.038;5.858;2022-10-31T14:08:02;21.43;60.64
65884;HTU21D;52663;51.038;5.858;2022-10-31T14:10:33;21.40;60.41
65884;HTU21D;52663;51.038;5.858;2022-10-31T14:13:29;21.34;60.41
65884;HTU21D;52663;51.038;5.858;2022-10-31T14:16:04;21.31;60.25
65884;HTU21D;52663;51.038;5.858;2022-10-31T14:18:37;21.30;60.60
65884;HTU21D;52663;51.038;5.858;2022-10-31T14:21:44;21.31;60.37
65884;HTU21D;52663;51.038;5.858;2022-10-31T14:27:00;21.17;60.44
65884;HTU21D;52663;51.038;5.858;2022-10-31T14:29:34;21.13;60.62
65884;HTU21D;52663;51.038;5.858;2022-10-31T14:51:22;20.87;61.60
65884;HTU21D;52663;51.038;5.858;2022-10-31T14:53:53;20.86;61.74
65884;HTU21D;52663;51.038;5.858;2022-10-31T14:56:27;20.80;61.70
65884;HTU21D;52663;51.038;5.858;2022-10-31T14:58:57;20.78;61.50
65884;HTU21D;52663;51.038;5.858;2022-10-31T15:01:34;20.71;61.55
65884;HTU21D;52663;51.038;5.858;2022-10-31T15:04:18;20.64;61.73
65884;HTU21D;52663;51.038;5.858;2022-10-31T15:06:49;20.60;61.92
65884;HTU21D;52663;51.038;5.858;2022-10-31T15:09:29;20.55;62.27
65884;HTU21D;52663;51.038;5.858;2022-10-31T15:12:01;20.50;62.48
65884;HTU21D;52663;51.038;5.858;2022-10-31T15:14:40;20.44;62.72
65884;HTU21D;52663;51.038;5.858;2022-10-31T15:17:06;20.37;62.66
65884;HTU21D;52663;51.038;5.858;2022-10-31T15:19:34;20.29;62.47
65884;HTU21D;52663;51.038;5.858;2022-10-31T15:22:01;20.15;62.55
65884;HTU21D;52663;51.038;5.858;2022-10-31T15:24:33;20.06;62.53
65884;HTU21D;52663;51.038;5.858;2022-10-31T15:27:00;20.02;62.60
65884;HTU21D;52663;51.038;5.858;2022-10-31T15:29:26;19.96;62.76
65884;HTU21D;52663;51.038;5.858;2022-10-31T15:31:55;19.90;62.88
65884;HTU21D;52663;51.038;5.858;2022-10-31T15:34:40;19.84;63.01
65884;HTU21D;52663;51.038;5.858;2022-10-31T15:37:15;19.71;63.30
65884;HTU21D;52663;51.038;5.858;2022-10-31T15:39:46;19.67;63.57
65884;HTU21D;52663;51.038;5.858;2022-10-31T15:42:30;19.61;63.76
65884;HTU21D;52663;51.038;5.858;2022-10-31T15:45:05;19.54;63.91
65884;HTU21D;52663;51.038;5.858;2022-10-31T15:47:33;19.45;64.11
65884;HTU21D;52663;51.038;5.858;2022-10-31T15:50:02;19.38;64.46
65884;HTU21D;52663;51.038;5.858;2022-10-31T15:52:37;19.27;64.63
65884;HTU21D;52663;51.038;5.858;2022-10-31T15:55:26;19.21;64.93
65884;HTU21D;52663;51.038;5.858;2022-10-31T15:57:59;19.10;65.23
65884;HTU21D;52663;51.038;5.858;2022-10-31T16:00:36;19.01;65.46
65884;HTU21D;52663;51.038;5.858;2022-10-31T16:05:46;18.88;65.75
65884;HTU21D;52663;51.038;5.858;2022-10-31T16:10:52;18.82;66.03
65884;HTU21D;52663;51.038;5.858;2022-10-31T16:13:26;18.77;66.18
65884;HTU21D;52663;51.038;5.858;2022-10-31T16:15:56;18.76;66.14
65884;HTU21D;52663;51.038;5.858;2022-10-31T16:18:25;18.71;66.32
65884;HTU21D;52663;51.038;5.858;2022-10-31T16:20:54;18.69;66.38
65884;HTU21D;52663;51.038;5.858;2022-10-31T16:23:24;18.68;66.46
65884;HTU21D;52663;51.038;5.858;2022-10-31T16:25:52;18.68;66.35
65884;HTU21D;52663;51.038;5.858;2022-10-31T16:28:22;18.66;66.49
65884;HTU21D;52663;51.038;5.858;2022-10-31T16:30:51;18.67;66.51
65884;HTU21D;52663;51.038;5.858;2022-10-31T16:33:29;18.70;66.39
65884;HTU21D;52663;51.038;5.858;2022-10-31T16:35:58;18.71;66.36
65884;HTU21D;52663;51.038;5.858;2022-10-31T16:38:26;18.70;66.33
65884;HTU21D;52663;51.038;5.858;2022-10-31T16:40:53;18.70;66.33
65884;HTU21D;52663;51.038;5.858;2022-10-31T16:43:22;18.72;66.26
65884;HTU21D;52663;51.038;5.858;2022-10-31T16:45:52;18.72;66.15
65884;HTU21D;52663;51.038;5.858;2022-10-31T16:48:20;18.70;66.24
65884;HTU21D;52663;51.038;5.858;2022-10-31T16:50:49;18.69;66.41
65884;HTU21D;52663;51.038;5.858;2022-10-31T16:53:16;18.72;66.27
65884;HTU21D;52663;51.038;5.858;2022-10-31T16:55:54;18.73;66.20
65884;HTU21D;52663;51.038;5.858;2022-10-31T16:58:27;18.76;66.09
65884;HTU21D;52663;51.038;5.858;2022-10-31T17:00:53;18.71;66.20
65884;HTU21D;52663;51.038;5.858;2022-10-31T17:03:20;18.71;66.30
65884;HTU21D;52663;51.038;5.858;2022-10-31T17:05:46;18.72;66.25
65884;HTU21D;52663;51.038;5.858;2022-10-31T17:08:12;18.68;66.31
65884;HTU21D;52663;51.038;5.858;2022-10-31T17:10:40;18.69;66.36
65884;HTU21D;52663;51.038;5.858;2022-10-31T17:13:13;18.67;66.38
65884;HTU21D;52663;51.038;5.858;2022-10-31T17:15:46;18.64;66.44
65884;HTU21D;52663;51.038;5.858;2022-10-31T17:18:14;18.62;66.46
65884;HTU21D;52663;51.038;5.858;2022-10-31T17:20:42;18.56;66.59
65884;HTU21D;52663;51.038;5.858;2022-10-31T17:23:12;18.52;66.76
65884;HTU21D;52663;51.038;5.858;2022-10-31T17:25:39;18.47;66.90
65884;HTU21D;52663;51.038;5.858;2022-10-31T17:28:05;18.39;67.08
65884;HTU21D;52663;51.038;5.858;2022-10-31T17:30:32;18.34;67.29
65884;HTU21D;52663;51.038;5.858;2022-10-31T17:32:58;18.30;67.44
65884;HTU21D;52663;51.038;5.858;2022-10-31T17:35:24;18.20;67.72
65884;HTU21D;52663;51.038;5.858;2022-10-31T17:37:50;18.13;67.96
65884;HTU21D;52663;51.038;5.858;2022-10-31T17:40:19;18.10;68.12
65884;HTU21D;52663;51.038;5.858;2022-10-31T17:42:54;18.07;68.26
65884;HTU21D;52663;51.038;5.858;2022-10-31T17:45:22;17.98;68.46